createdAt,value
2018-09-15T00:00:23.006Z,12.15
2018-09-15T00:01:25.665Z,12.12
2018-09-15T00:02:28.344Z,12.12
2018-09-15T00:03:30.999Z,12.12
2018-09-15T00:04:33.642Z,12.24
2018-09-15T00:05:36.328Z,12.17
2018-09-15T00:06:39.002Z,12.11
2018-09-15T00:07:41.670Z,12.17
2018-09-15T00:08:44.535Z,12.24
2018-09-15T00:09:47.178Z,12.27
2018-09-15T00:10:50.125Z,12.19
2018-09-15T00:11:52.818Z,12.22
2018-09-15T00:12:55.554Z,12.17
2018-09-15T00:13:58.227Z,12.26
2018-09-15T00:15:00.898Z,12.20
2018-09-15T00:16:03.624Z,12.22
2018-09-15T00:17:06.342Z,12.20
2018-09-15T00:18:11.671Z,12.08
2018-09-15T00:19:14.335Z,12.05
2018-09-15T00:20:17.006Z,12.23
2018-09-15T00:21:19.666Z,12.17
2018-09-15T00:22:22.340Z,12.15
2018-09-15T00:23:24.974Z,12.07
2018-09-15T00:24:27.663Z,12.12
2018-09-15T00:25:30.320Z,12.19
2018-09-15T00:26:32.972Z,12.13
2018-09-15T00:27:35.650Z,12.06
2018-09-15T00:28:38.316Z,12.08
2018-09-15T00:29:40.970Z,12.04
2018-09-15T00:30:43.634Z,12.00
2018-09-15T00:31:46.378Z,11.95
2018-09-15T00:32:49.023Z,11.96
2018-09-15T00:33:51.689Z,12.03
2018-09-15T00:34:54.368Z,12.01
2018-09-15T00:35:57.011Z,12.02
2018-09-15T00:36:59.654Z,12.14
2018-09-15T00:38:02.314Z,12.04
2018-09-15T00:39:08.304Z,12.05
2018-09-15T00:40:10.965Z,12.09
2018-09-15T00:41:13.608Z,12.12
2018-09-15T00:42:16.269Z,12.12
2018-09-15T00:43:18.914Z,12.16
2018-09-15T00:44:21.545Z,12.12
2018-09-15T00:45:24.289Z,12.10
2018-09-15T00:46:26.943Z,12.12
2018-09-15T00:47:29.602Z,12.10
2018-09-15T00:48:32.259Z,12.06
2018-09-15T00:49:34.916Z,12.05
2018-09-15T00:50:37.580Z,12.04
2018-09-15T00:51:40.221Z,11.93
2018-09-15T00:52:42.960Z,12.07
2018-09-15T00:53:45.609Z,12.13
2018-09-15T00:54:48.248Z,12.15
2018-09-15T00:55:50.906Z,12.14
2018-09-15T00:56:53.565Z,12.20
2018-09-15T00:57:56.201Z,12.13
2018-09-15T00:58:58.825Z,12.17
2018-09-15T01:00:01.484Z,12.21
2018-09-15T01:01:04.113Z,12.24
2018-09-15T01:02:06.757Z,12.14
2018-09-15T01:03:09.459Z,12.09
2018-09-15T01:04:12.111Z,12.11
2018-09-15T01:05:14.804Z,12.14
2018-09-15T01:06:17.530Z,12.19
2018-09-15T01:07:20.161Z,12.12
2018-09-15T01:08:22.801Z,12.15
2018-09-15T01:09:25.471Z,12.16
2018-09-15T01:10:28.145Z,12.17
2018-09-15T01:11:30.820Z,12.12
2018-09-15T01:12:33.764Z,12.15
2018-09-15T01:13:36.409Z,12.18
2018-09-15T01:14:39.368Z,12.21
2018-09-15T01:15:42.053Z,12.17
2018-09-15T01:16:44.729Z,12.16
2018-09-15T01:17:47.388Z,12.10
2018-09-15T01:18:50.042Z,12.16
2018-09-15T01:19:52.764Z,12.16
2018-09-15T01:20:56.038Z,12.23
2018-09-15T01:21:58.747Z,12.16
2018-09-15T01:23:01.414Z,12.13
2018-09-15T01:24:04.125Z,12.09
2018-09-15T01:25:06.834Z,12.14
2018-09-15T01:26:09.626Z,12.14
2018-09-15T01:27:12.294Z,12.21
2018-09-15T01:28:14.930Z,12.27
2018-09-15T01:29:17.597Z,12.25
2018-09-15T01:30:20.281Z,12.31
2018-09-15T01:31:23.634Z,12.18
2018-09-15T01:32:27.478Z,12.26
2018-09-15T01:33:30.137Z,12.26
2018-09-15T01:34:32.807Z,12.15
2018-09-15T01:35:35.456Z,12.11
2018-09-15T01:36:38.107Z,12.14
2018-09-15T01:37:40.767Z,12.15
2018-09-15T01:38:43.453Z,12.14
2018-09-15T01:39:46.129Z,12.10
2018-09-15T01:40:48.810Z,12.20
2018-09-15T01:41:51.485Z,12.22
2018-09-15T01:42:54.162Z,12.24
2018-09-15T01:43:56.811Z,12.20
2018-09-15T01:44:59.463Z,12.14
2018-09-15T01:46:02.389Z,12.06
2018-09-15T01:47:05.026Z,12.11
2018-09-15T01:48:07.710Z,12.13
2018-09-15T01:49:10.352Z,12.02
2018-09-15T01:50:13.002Z,12.14
2018-09-15T01:51:15.677Z,12.16
2018-09-15T01:52:18.380Z,12.13
2018-09-15T01:53:21.019Z,12.15
2018-09-15T01:54:23.728Z,12.14
2018-09-15T01:55:26.490Z,12.03
2018-09-15T01:56:29.144Z,11.85
2018-09-15T01:57:31.822Z,12.04
2018-09-15T01:58:34.552Z,12.04
2018-09-15T01:59:37.217Z,12.04
2018-09-15T02:00:39.963Z,11.94
2018-09-15T02:01:42.606Z,11.96
2018-09-15T02:02:45.267Z,12.02
2018-09-15T02:03:47.911Z,11.94
2018-09-15T02:04:50.577Z,11.87
2018-09-15T02:05:53.241Z,11.99
2018-09-15T02:06:55.911Z,11.69
2018-09-15T02:07:58.575Z,11.93
2018-09-15T02:09:01.204Z,11.96
2018-09-15T02:10:03.885Z,11.82
2018-09-15T02:11:06.589Z,11.87
2018-09-15T02:12:09.227Z,11.92
2018-09-15T02:14:38.525Z,11.83
2018-09-15T02:15:41.220Z,11.89
2018-09-15T02:16:44.057Z,11.94
2018-09-15T02:17:46.745Z,11.92
2018-09-15T02:18:49.447Z,12.00
2018-09-15T02:19:52.176Z,12.03
2018-09-15T02:20:54.845Z,12.06
2018-09-15T02:21:57.499Z,12.10
2018-09-15T02:23:00.160Z,12.14
2018-09-15T02:24:02.833Z,12.16
2018-09-15T02:25:05.537Z,12.12
2018-09-15T02:26:08.308Z,12.03
2018-09-15T02:27:10.953Z,12.14
2018-09-15T02:28:13.604Z,12.05
2018-09-15T02:29:16.254Z,12.04
2018-09-15T02:30:18.924Z,12.06
2018-09-15T02:31:21.649Z,12.00
2018-09-15T02:32:24.293Z,11.84
2018-09-15T02:33:26.960Z,11.96
2018-09-15T02:34:29.638Z,11.86
2018-09-15T02:35:32.276Z,11.86
2018-09-15T02:36:35.024Z,11.89
2018-09-15T02:37:37.672Z,11.91
2018-09-15T02:38:40.350Z,11.94
2018-09-15T02:39:42.997Z,11.88
2018-09-15T02:40:45.655Z,11.91
2018-09-15T02:41:48.300Z,11.77
2018-09-15T02:42:50.953Z,11.86
2018-09-15T02:43:53.606Z,10.39
2018-09-15T02:44:56.247Z,11.89
2018-09-15T02:45:58.904Z,11.99
2018-09-15T02:47:01.563Z,12.04
2018-09-15T02:48:04.438Z,12.04
2018-09-15T02:49:07.080Z,12.10
2018-09-15T02:50:09.770Z,11.93
2018-09-15T02:51:12.560Z,11.85
2018-09-15T02:52:15.212Z,11.77
2018-09-15T02:53:17.860Z,11.86
2018-09-15T02:54:20.485Z,11.88
2018-09-15T02:55:23.146Z,11.91
2018-09-15T02:56:25.821Z,11.86
2018-09-15T02:57:28.468Z,11.98
2018-09-15T02:58:31.114Z,12.05
2018-09-15T02:59:33.754Z,12.05
2018-09-15T03:00:36.445Z,12.01
2018-09-15T03:01:39.099Z,11.89
2018-09-15T03:02:41.741Z,12.03
2018-09-15T03:03:44.418Z,11.98
2018-09-15T03:04:47.070Z,11.91
2018-09-15T03:05:49.715Z,11.89
2018-09-15T03:06:52.362Z,11.88
2018-09-15T03:07:55.026Z,11.86
2018-09-15T03:08:57.675Z,11.90
2018-09-15T03:10:00.331Z,11.93
2018-09-15T03:11:03.001Z,11.91
2018-09-15T03:12:05.741Z,11.93
2018-09-15T03:13:08.402Z,11.78
2018-09-15T03:14:11.042Z,11.81
2018-09-15T03:15:13.733Z,11.88
2018-09-15T03:16:16.389Z,11.83
2018-09-15T03:17:19.052Z,11.90
2018-09-15T03:18:21.707Z,12.00
2018-09-15T03:19:24.437Z,11.82
2018-09-15T03:20:27.116Z,11.80
2018-09-15T03:21:29.801Z,11.83
2018-09-15T03:22:32.786Z,11.89
2018-09-15T03:23:35.494Z,11.94
2018-09-15T03:24:38.685Z,12.03
2018-09-15T03:25:41.414Z,11.89
2018-09-15T03:26:44.065Z,11.90
2018-09-15T03:27:46.729Z,11.98
2018-09-15T03:28:49.414Z,11.93
2018-09-15T03:29:52.055Z,11.92
2018-09-15T03:32:12.213Z,11.91
2018-09-15T03:33:14.886Z,11.79
2018-09-15T03:34:17.541Z,11.87
2018-09-15T03:35:20.243Z,11.92
2018-09-15T03:36:22.924Z,11.91
2018-09-15T03:37:25.638Z,11.92
2018-09-15T03:38:28.272Z,11.97
2018-09-15T03:39:30.945Z,11.91
2018-09-15T03:40:33.766Z,11.91
2018-09-15T03:41:36.467Z,11.99
2018-09-15T03:42:39.119Z,11.92
2018-09-15T03:43:41.773Z,11.90
2018-09-15T03:46:11.117Z,11.87
2018-09-15T03:47:13.771Z,11.90
2018-09-15T03:48:16.452Z,10.66
2018-09-15T03:49:19.185Z,11.87
2018-09-15T03:50:21.846Z,11.86
2018-09-15T03:51:24.509Z,11.85
2018-09-15T03:52:27.182Z,11.95
2018-09-15T03:53:29.861Z,12.02
2018-09-15T03:54:32.553Z,12.01
2018-09-15T03:55:35.197Z,12.06
2018-09-15T03:56:37.840Z,12.07
2018-09-15T03:57:40.494Z,12.12
2018-09-15T03:58:43.187Z,12.09
2018-09-15T03:59:45.873Z,12.01
2018-09-15T04:00:48.911Z,12.01
2018-09-15T04:01:51.577Z,12.08
2018-09-15T04:02:54.248Z,12.13
2018-09-15T04:03:56.903Z,12.08
2018-09-15T04:04:59.551Z,12.01
2018-09-15T04:06:02.225Z,12.02
2018-09-15T04:07:04.921Z,12.01
2018-09-15T04:08:07.587Z,12.04
2018-09-15T04:09:11.198Z,12.03
2018-09-15T04:10:13.850Z,11.98
2018-09-15T04:11:16.493Z,12.04
2018-09-15T04:12:19.175Z,12.00
2018-09-15T04:13:21.843Z,12.03
2018-09-15T04:14:24.545Z,12.10
2018-09-15T04:15:27.217Z,12.12
2018-09-15T04:16:29.873Z,12.00
2018-09-15T04:17:32.517Z,12.01
2018-09-15T04:18:35.169Z,12.03
2018-09-15T04:19:37.803Z,11.90
2018-09-15T04:20:40.452Z,11.92
2018-09-15T04:21:43.128Z,11.86
2018-09-15T04:22:45.813Z,11.95
2018-09-15T04:23:48.479Z,11.87
2018-09-15T04:24:51.347Z,11.75
2018-09-15T04:25:54.082Z,10.57
2018-09-15T04:26:56.726Z,11.83
2018-09-15T04:27:59.432Z,11.82
2018-09-15T04:29:02.126Z,11.67
2018-09-15T04:30:05.214Z,11.60
2018-09-15T04:31:07.912Z,11.66
2018-09-15T04:32:10.605Z,11.76
2018-09-15T04:33:13.328Z,11.78
2018-09-15T04:34:16.043Z,11.84
2018-09-15T04:35:18.729Z,11.79
2018-09-15T04:36:21.423Z,11.63
2018-09-15T04:37:24.132Z,11.69
2018-09-15T04:38:26.827Z,11.67
2018-09-15T04:39:29.523Z,11.62
2018-09-15T04:40:32.269Z,11.71
2018-09-15T04:41:34.988Z,11.79
2018-09-15T04:42:37.653Z,11.65
2018-09-15T04:43:40.326Z,11.68
2018-09-15T04:44:42.989Z,11.69
2018-09-15T04:45:45.645Z,11.84
2018-09-15T04:46:48.304Z,11.83
2018-09-15T04:47:50.956Z,11.88
2018-09-15T04:48:53.608Z,11.84
2018-09-15T04:49:56.266Z,11.76
2018-09-15T04:50:58.960Z,11.77
2018-09-15T04:52:01.639Z,11.70
2018-09-15T04:53:04.351Z,11.85
2018-09-15T04:54:07.034Z,11.90
2018-09-15T04:55:09.778Z,11.71
2018-09-15T04:56:12.506Z,11.65
2018-09-15T04:57:15.187Z,11.73
2018-09-15T04:58:17.858Z,11.71
2018-09-15T04:59:20.529Z,11.62
2018-09-15T05:00:23.262Z,11.57
2018-09-15T05:01:25.920Z,11.64
2018-09-15T05:02:28.606Z,11.74
2018-09-15T05:03:31.378Z,11.83
2018-09-15T05:04:34.044Z,11.86
2018-09-15T05:05:36.719Z,11.84
2018-09-15T05:06:39.433Z,11.77
2018-09-15T05:07:42.082Z,11.78
2018-09-15T05:08:44.729Z,11.90
2018-09-15T05:09:47.405Z,11.96
2018-09-15T05:10:50.073Z,11.89
2018-09-15T05:11:52.742Z,11.91
2018-09-15T05:12:55.430Z,11.92
2018-09-15T05:13:58.085Z,11.81
2018-09-15T05:15:00.765Z,11.80
2018-09-15T05:16:03.447Z,11.90
2018-09-15T05:17:06.120Z,11.87
2018-09-15T05:18:08.750Z,11.94
2018-09-15T05:19:11.403Z,11.86
2018-09-15T05:20:14.126Z,11.92
2018-09-15T05:21:16.790Z,11.93
2018-09-15T05:22:19.518Z,11.97
2018-09-15T05:23:22.160Z,12.02
2018-09-15T05:24:24.804Z,12.02
2018-09-15T05:25:27.447Z,11.97
2018-09-15T05:26:30.326Z,11.97
2018-09-15T05:27:32.992Z,10.46
2018-09-15T05:28:35.663Z,12.04
2018-09-15T05:29:38.349Z,12.04
2018-09-15T05:30:41.019Z,11.99
2018-09-15T05:31:43.678Z,11.91
2018-09-15T05:32:46.349Z,11.87
2018-09-15T05:33:49.030Z,11.93
2018-09-15T05:36:01.245Z,11.88
2018-09-15T05:37:03.968Z,11.97
2018-09-15T05:38:06.628Z,11.93
2018-09-15T05:39:11.015Z,11.96
2018-09-15T05:40:13.673Z,11.91
2018-09-15T05:41:16.346Z,11.94
2018-09-15T05:42:19.033Z,11.90
2018-09-15T05:43:21.699Z,11.84
2018-09-15T05:44:24.348Z,11.84
2018-09-15T05:45:27.034Z,11.87
2018-09-15T05:46:29.702Z,11.89
2018-09-15T05:47:32.386Z,11.94
2018-09-15T05:48:35.067Z,11.95
2018-09-15T05:49:37.761Z,11.96
2018-09-15T05:50:40.441Z,11.94
2018-09-15T05:51:43.079Z,12.00
2018-09-15T05:52:45.732Z,11.99
2018-09-15T05:53:48.397Z,11.95
2018-09-15T05:54:51.174Z,11.98
2018-09-15T05:55:53.846Z,12.06
2018-09-15T05:56:56.510Z,12.09
2018-09-15T05:57:59.190Z,12.06
2018-09-15T05:59:01.899Z,12.10
2018-09-15T06:00:05.036Z,12.11
2018-09-15T06:01:07.769Z,12.10
2018-09-15T06:02:10.432Z,12.13
2018-09-15T06:03:14.897Z,12.11
2018-09-15T06:04:17.607Z,12.08
2018-09-15T06:05:20.364Z,12.09
2018-09-15T06:06:24.079Z,12.11
2018-09-15T06:07:26.789Z,12.09
2018-09-15T06:08:29.490Z,12.09
2018-09-15T06:09:32.185Z,12.09
2018-09-15T06:10:34.857Z,12.15
2018-09-15T06:11:37.586Z,12.14
2018-09-15T06:12:40.285Z,12.20
2018-09-15T06:13:43.012Z,12.21
2018-09-15T06:14:45.705Z,12.14
2018-09-15T06:15:48.409Z,12.16
2018-09-15T06:16:51.083Z,12.12
2018-09-15T06:17:53.828Z,12.09
2018-09-15T06:18:56.521Z,12.17
2018-09-15T06:19:59.231Z,12.20
2018-09-15T06:21:01.997Z,12.20
2018-09-15T06:22:04.717Z,12.17
2018-09-15T06:23:07.421Z,12.18
2018-09-15T06:24:10.118Z,12.16
2018-09-15T06:25:12.814Z,12.22
2018-09-15T06:26:16.012Z,12.22
2018-09-15T06:27:18.701Z,12.24
2018-09-15T06:28:21.657Z,12.18
2018-09-15T06:29:24.330Z,12.21
2018-09-15T06:30:27.042Z,12.19
2018-09-15T06:31:29.897Z,12.23
2018-09-15T06:32:32.658Z,12.18
2018-09-15T06:33:35.384Z,12.19
2018-09-15T06:34:38.095Z,12.16
2018-09-15T06:35:40.886Z,12.24
2018-09-15T06:36:43.632Z,12.23
2018-09-15T06:37:46.440Z,12.22
2018-09-15T06:38:49.150Z,12.07
2018-09-15T06:39:51.857Z,12.11
2018-09-15T06:40:54.561Z,12.10
2018-09-15T06:41:57.261Z,12.09
2018-09-15T06:42:59.945Z,12.01
2018-09-15T06:44:02.677Z,11.95
2018-09-15T06:45:05.427Z,11.94
2018-09-15T06:46:08.138Z,11.97
2018-09-15T06:47:10.821Z,11.87
2018-09-15T06:48:13.513Z,11.92
2018-09-15T06:49:16.225Z,11.96
2018-09-15T06:50:18.965Z,11.97
2018-09-15T06:51:21.707Z,11.93
2018-09-15T06:52:24.381Z,11.92
2018-09-15T06:53:27.103Z,11.97
2018-09-15T06:54:29.789Z,12.01
2018-09-15T06:55:32.460Z,12.05
2018-09-15T06:56:35.156Z,12.04
2018-09-15T06:57:37.871Z,12.10
2018-09-15T06:58:40.598Z,12.02
2018-09-15T06:59:43.367Z,12.05
2018-09-15T07:00:46.095Z,11.96
2018-09-15T07:01:49.289Z,11.98
2018-09-15T07:02:52.002Z,12.06
2018-09-15T07:03:54.708Z,12.02
2018-09-15T07:04:57.389Z,11.98
2018-09-15T07:06:00.083Z,11.94
2018-09-15T07:07:02.756Z,11.99
2018-09-15T07:08:05.547Z,12.05
2018-09-15T07:09:11.030Z,12.07
2018-09-15T07:10:13.728Z,11.94
2018-09-15T07:11:16.386Z,12.00
2018-09-15T07:12:19.040Z,12.04
2018-09-15T07:13:21.705Z,12.08
2018-09-15T07:14:24.368Z,12.01
2018-09-15T07:15:27.034Z,12.00
2018-09-15T07:16:29.885Z,12.06
2018-09-15T07:17:32.552Z,11.91
2018-09-15T07:18:35.208Z,11.95
2018-09-15T07:19:37.903Z,11.97
2018-09-15T07:20:40.616Z,11.95
2018-09-15T07:21:43.316Z,11.91
2018-09-15T07:22:45.983Z,12.02
2018-09-15T07:23:48.679Z,12.01
2018-09-15T07:24:51.428Z,12.03
2018-09-15T07:25:54.219Z,12.06
2018-09-15T07:26:56.862Z,12.09
2018-09-15T07:27:59.572Z,12.04
2018-09-15T07:29:02.285Z,12.00
2018-09-15T07:30:05.423Z,12.06
2018-09-15T07:31:08.191Z,12.01
2018-09-15T07:32:10.896Z,11.94
2018-09-15T07:33:13.616Z,11.97
2018-09-15T07:34:16.309Z,11.94
2018-09-15T07:35:19.015Z,11.97
2018-09-15T07:36:21.739Z,11.97
2018-09-15T07:37:24.463Z,11.96
2018-09-15T07:38:27.157Z,12.06
2018-09-15T07:39:29.990Z,12.10
2018-09-15T07:40:32.682Z,12.12
2018-09-15T07:41:35.372Z,12.11
2018-09-15T07:42:38.092Z,12.13
2018-09-15T07:43:40.815Z,12.17
2018-09-15T07:44:43.592Z,12.18
2018-09-15T07:45:46.277Z,12.17
2018-09-15T07:46:48.992Z,12.22
2018-09-15T07:47:51.689Z,12.27
2018-09-15T07:48:54.381Z,12.28
2018-09-15T07:49:57.093Z,12.29
2018-09-15T07:50:59.831Z,12.33
2018-09-15T07:52:02.540Z,12.33
2018-09-15T07:53:05.286Z,12.38
2018-09-15T07:54:07.952Z,12.37
2018-09-15T07:55:10.613Z,12.41
2018-09-15T07:56:13.315Z,12.41
2018-09-15T07:57:16.000Z,12.45
2018-09-15T07:58:18.665Z,12.49
2018-09-15T07:59:21.352Z,12.50
2018-09-15T08:00:24.112Z,12.52
2018-09-15T08:01:26.788Z,12.52
2018-09-15T08:02:29.445Z,12.50
2018-09-15T08:03:32.094Z,12.51
2018-09-15T08:04:34.756Z,12.52
2018-09-15T08:05:37.426Z,12.52
2018-09-15T08:06:40.088Z,12.49
2018-09-15T08:07:42.778Z,12.50
2018-09-15T08:08:45.446Z,12.46
2018-09-15T08:09:48.216Z,12.42
2018-09-15T08:10:50.875Z,12.44
2018-09-15T08:11:53.568Z,12.47
2018-09-15T08:12:56.235Z,12.47
2018-09-15T08:13:58.895Z,12.42
2018-09-15T08:15:01.592Z,12.40
2018-09-15T08:16:04.385Z,12.45
2018-09-15T08:17:07.230Z,12.52
2018-09-15T08:18:09.909Z,12.48
2018-09-15T08:19:12.603Z,12.49
2018-09-15T08:20:15.302Z,12.48
2018-09-15T08:21:17.984Z,12.45
2018-09-15T08:22:20.639Z,12.45
2018-09-15T08:23:23.324Z,12.50
2018-09-15T08:24:26.014Z,12.49
2018-09-15T08:25:28.705Z,12.50
2018-09-15T08:26:31.455Z,12.47
2018-09-15T08:27:34.124Z,12.50
2018-09-15T08:28:36.796Z,12.53
2018-09-15T08:29:39.499Z,12.44
2018-09-15T08:30:42.177Z,12.44
2018-09-15T08:31:45.058Z,12.46
2018-09-15T08:32:47.787Z,12.43
2018-09-15T08:33:50.457Z,12.52
2018-09-15T08:34:53.302Z,12.53
2018-09-15T08:35:55.970Z,12.55
2018-09-15T08:36:58.646Z,12.57
2018-09-15T08:38:01.301Z,12.56
2018-09-15T08:39:05.674Z,12.57
2018-09-15T08:40:08.344Z,12.61
2018-09-15T08:41:11.072Z,12.58
2018-09-15T08:42:13.745Z,12.55
2018-09-15T08:43:16.415Z,12.61
2018-09-15T08:44:19.166Z,12.65
2018-09-15T08:45:21.911Z,12.54
2018-09-15T08:46:24.574Z,12.61
2018-09-15T08:47:27.276Z,12.65
2018-09-15T08:48:29.984Z,12.67
2018-09-15T08:49:32.657Z,12.58
2018-09-15T08:50:35.330Z,11.90
2018-09-15T08:51:38.017Z,12.63
2018-09-15T08:52:40.828Z,12.55
2018-09-15T08:53:43.506Z,12.57
2018-09-15T08:54:46.166Z,12.62
2018-09-15T08:55:48.904Z,12.63
2018-09-15T08:56:51.564Z,12.53
2018-09-15T08:57:54.266Z,12.53
2018-09-15T08:58:56.918Z,12.48
2018-09-15T08:59:59.585Z,12.50
2018-09-15T09:01:02.261Z,12.58
2018-09-15T09:02:05.064Z,12.60
2018-09-15T09:03:07.972Z,12.65
2018-09-15T09:04:10.637Z,12.62
2018-09-15T09:05:13.294Z,12.67
2018-09-15T09:06:16.070Z,12.68
2018-09-15T09:07:18.735Z,12.64
2018-09-15T09:08:21.401Z,12.70
2018-09-15T09:09:24.094Z,12.70
2018-09-15T09:10:26.750Z,12.71
2018-09-15T09:11:29.418Z,12.73
2018-09-15T09:12:32.124Z,12.77
2018-09-15T09:13:34.792Z,12.77
2018-09-15T09:14:37.451Z,12.69
2018-09-15T09:15:40.137Z,12.72
2018-09-15T09:16:42.793Z,12.69
2018-09-15T09:17:45.448Z,12.72
2018-09-15T09:18:48.124Z,12.68
2018-09-15T09:19:50.797Z,12.66
2018-09-15T09:20:53.498Z,12.73
2018-09-15T09:21:56.168Z,12.76
2018-09-15T09:23:14.012Z,12.75
2018-09-15T09:24:16.692Z,12.79
2018-09-15T09:25:19.386Z,12.77
2018-09-15T09:26:22.133Z,12.78
2018-09-15T09:27:24.750Z,12.81
2018-09-15T09:28:27.600Z,12.80
2018-09-15T09:29:30.262Z,12.77
2018-09-15T09:30:32.944Z,12.79
2018-09-15T09:31:35.634Z,12.81
2018-09-15T09:32:38.323Z,12.82
2018-09-15T09:33:41.223Z,12.82
2018-09-15T09:34:43.928Z,12.83
2018-09-15T09:35:46.601Z,12.85
2018-09-15T09:36:49.260Z,12.88
2018-09-15T09:37:51.944Z,12.90
2018-09-15T09:38:54.660Z,12.84
2018-09-15T09:39:57.315Z,12.86
2018-09-15T09:40:59.996Z,12.88
2018-09-15T09:42:02.673Z,12.89
2018-09-15T09:43:05.413Z,12.92
2018-09-15T09:44:08.141Z,12.93
2018-09-15T09:45:10.803Z,12.93
2018-09-15T09:46:13.510Z,12.97
2018-09-15T09:47:16.170Z,12.99
2018-09-15T09:48:19.048Z,12.97
2018-09-15T09:49:21.645Z,12.98
2018-09-15T09:50:24.312Z,12.98
2018-09-15T09:51:26.988Z,13.03
2018-09-15T09:52:29.654Z,13.04
2018-09-15T09:53:32.317Z,13.03
2018-09-15T09:54:34.984Z,13.03
2018-09-15T09:55:37.656Z,13.04
2018-09-15T09:56:40.327Z,13.06
2018-09-15T09:57:43.007Z,13.07
2018-09-15T09:58:45.675Z,13.08
2018-09-15T09:59:48.366Z,13.09
2018-09-15T10:00:56.464Z,13.11
2018-09-15T10:02:29.933Z,13.11
2018-09-15T10:03:32.608Z,13.15
2018-09-15T10:04:35.294Z,13.15
2018-09-15T10:05:37.985Z,13.13
2018-09-15T10:06:40.725Z,13.14
2018-09-15T10:07:43.393Z,13.13
2018-09-15T10:08:46.083Z,13.13
2018-09-15T10:09:48.922Z,13.14
2018-09-15T10:10:51.566Z,13.16
2018-09-15T10:11:54.245Z,13.21
2018-09-15T10:12:56.907Z,13.27
2018-09-15T10:13:59.583Z,13.28
2018-09-15T10:15:02.272Z,13.26
2018-09-15T10:16:04.958Z,13.28
2018-09-15T10:17:07.638Z,13.29
2018-09-15T10:18:10.330Z,13.28
2018-09-15T10:19:12.997Z,13.27
2018-09-15T10:20:15.642Z,13.26
2018-09-15T10:21:18.311Z,13.26
2018-09-15T10:22:20.987Z,13.28
2018-09-15T10:23:23.634Z,13.28
2018-09-15T10:24:26.314Z,13.27
2018-09-15T10:25:28.986Z,13.28
2018-09-15T10:26:31.671Z,13.30
2018-09-15T10:27:34.346Z,13.33
2018-09-15T10:28:37.037Z,13.38
2018-09-15T10:29:39.708Z,13.37
2018-09-15T10:30:42.378Z,13.40
2018-09-15T10:31:45.024Z,13.43
2018-09-15T10:32:47.714Z,13.49
2018-09-15T10:33:50.391Z,13.54
2018-09-15T10:34:53.054Z,13.56
2018-09-15T10:35:55.934Z,13.56
2018-09-15T10:36:58.619Z,13.55
2018-09-15T10:38:01.297Z,13.58
2018-09-15T10:39:05.724Z,13.61
2018-09-15T10:40:08.410Z,13.59
2018-09-15T10:41:11.083Z,13.71
2018-09-15T10:42:13.761Z,13.72
2018-09-15T10:43:16.441Z,13.69
2018-09-15T10:44:19.110Z,13.69
2018-09-15T10:45:21.745Z,13.69
2018-09-15T10:46:24.418Z,13.71
2018-09-15T10:47:27.129Z,13.76
2018-09-15T10:48:29.784Z,13.72
2018-09-15T10:49:32.465Z,13.76
2018-09-15T10:50:35.257Z,13.74
2018-09-15T10:51:37.907Z,13.71
2018-09-15T10:52:40.576Z,13.74
2018-09-15T10:53:43.280Z,13.74
2018-09-15T10:54:46.046Z,13.72
2018-09-15T10:55:48.804Z,13.74
2018-09-15T10:56:51.480Z,13.83
2018-09-15T10:57:54.144Z,13.91
2018-09-15T10:58:56.884Z,13.85
2018-09-15T10:59:59.599Z,13.90
2018-09-15T11:01:02.438Z,14.07
2018-09-15T11:02:05.197Z,14.08
2018-09-15T11:03:07.882Z,14.02
2018-09-15T11:04:10.566Z,13.97
2018-09-15T11:05:13.260Z,13.97
2018-09-15T11:06:15.938Z,14.06
2018-09-15T11:07:18.827Z,14.07
2018-09-15T11:08:21.557Z,14.03
2018-09-15T11:09:24.220Z,14.07
2018-09-15T11:10:26.899Z,14.14
2018-09-15T11:11:29.575Z,14.21
2018-09-15T11:12:32.285Z,14.37
2018-09-15T11:13:34.976Z,14.50
2018-09-15T11:14:38.603Z,14.43
2018-09-15T11:15:41.414Z,14.32
2018-09-15T11:16:44.081Z,14.30
2018-09-15T11:17:46.786Z,14.19
2018-09-15T11:18:49.504Z,14.15
2018-09-15T11:19:52.240Z,14.09
2018-09-15T11:20:54.955Z,14.11
2018-09-15T11:21:57.674Z,14.12
2018-09-15T11:23:00.375Z,14.09
2018-09-15T11:24:03.088Z,14.13
2018-09-15T11:25:05.814Z,14.13
2018-09-15T11:26:08.514Z,14.12
2018-09-15T11:27:11.230Z,14.17
2018-09-15T11:28:13.933Z,14.08
2018-09-15T11:29:16.651Z,14.06
2018-09-15T11:30:19.358Z,14.02
2018-09-15T11:31:22.080Z,13.99
2018-09-15T11:32:24.766Z,13.99
2018-09-15T11:33:27.526Z,14.00
2018-09-15T11:34:30.256Z,13.95
2018-09-15T11:35:32.978Z,13.95
2018-09-15T11:36:35.677Z,13.95
2018-09-15T11:37:38.370Z,13.98
2018-09-15T11:38:41.085Z,14.02
2018-09-15T11:39:43.787Z,14.06
2018-09-15T11:40:46.496Z,14.05
2018-09-15T11:41:49.177Z,14.07
2018-09-15T11:42:52.008Z,14.05
2018-09-15T11:43:54.708Z,14.06
2018-09-15T11:44:57.401Z,14.09
2018-09-15T11:46:00.113Z,14.09
2018-09-15T11:47:02.838Z,14.11
2018-09-15T11:48:05.763Z,14.09
2018-09-15T11:49:08.425Z,14.08
2018-09-15T11:50:11.133Z,14.08
2018-09-15T11:51:13.848Z,14.10
2018-09-15T11:52:16.559Z,14.14
2018-09-15T11:53:19.350Z,14.11
2018-09-15T11:54:22.149Z,14.11
2018-09-15T11:55:24.910Z,14.10
2018-09-15T11:56:27.658Z,14.09
2018-09-15T11:57:30.333Z,14.08
2018-09-15T11:58:33.051Z,14.15
2018-09-15T11:59:35.746Z,14.15
2018-09-15T12:00:41.057Z,14.16
2018-09-15T12:01:43.753Z,14.17
2018-09-15T12:02:46.491Z,14.23
2018-09-15T12:03:49.164Z,14.20
2018-09-15T12:04:51.851Z,14.21
2018-09-15T12:05:54.617Z,14.25
2018-09-15T12:06:57.301Z,14.23
2018-09-15T12:08:00.004Z,14.22
2018-09-15T12:09:02.961Z,14.25
2018-09-15T12:10:05.673Z,14.24
2018-09-15T12:11:08.423Z,14.25
2018-09-15T12:12:11.116Z,14.31
2018-09-15T12:13:13.848Z,14.28
2018-09-15T12:14:16.611Z,14.26
2018-09-15T12:15:19.579Z,14.37
2018-09-15T12:16:22.346Z,14.47
2018-09-15T12:17:25.040Z,14.50
2018-09-15T12:18:27.737Z,14.47
2018-09-15T12:19:30.434Z,14.54
2018-09-15T12:20:33.187Z,14.55
2018-09-15T12:21:35.952Z,14.49
2018-09-15T12:22:38.615Z,14.64
2018-09-15T12:23:41.346Z,14.71
2018-09-15T12:24:44.070Z,14.63
2018-09-15T12:25:46.764Z,14.55
2018-09-15T12:26:49.480Z,14.52
2018-09-15T12:27:52.257Z,14.55
2018-09-15T12:28:54.940Z,14.51
2018-09-15T12:29:57.648Z,14.49
2018-09-15T12:31:00.365Z,14.51
2018-09-15T12:32:03.096Z,14.67
2018-09-15T12:33:05.902Z,14.68
2018-09-15T12:34:08.616Z,14.68
2018-09-15T12:35:11.332Z,14.67
2018-09-15T12:36:13.996Z,14.69
2018-09-15T12:37:16.694Z,14.67
2018-09-15T12:38:19.514Z,14.60
2018-09-15T12:39:22.219Z,14.66
2018-09-15T12:40:25.124Z,14.58
2018-09-15T12:41:27.848Z,14.64
2018-09-15T12:42:30.545Z,14.74
2018-09-15T12:43:34.119Z,14.67
2018-09-15T12:44:36.896Z,14.67
2018-09-15T12:45:39.613Z,14.61
2018-09-15T12:46:42.291Z,14.66
2018-09-15T12:47:44.964Z,14.71
2018-09-15T12:48:48.108Z,14.71
2018-09-15T12:49:50.885Z,14.69
2018-09-15T12:50:53.586Z,14.68
2018-09-15T12:51:56.302Z,14.69
2018-09-15T12:52:58.980Z,14.66
2018-09-15T12:54:01.648Z,14.68
2018-09-15T12:55:04.513Z,14.75
2018-09-15T12:56:07.193Z,14.78
2018-09-15T12:57:09.937Z,14.78
2018-09-15T12:58:12.616Z,14.75
2018-09-15T12:59:15.317Z,14.73
2018-09-15T13:00:18.085Z,14.79
2018-09-15T13:01:20.766Z,14.81
2018-09-15T13:02:23.439Z,14.76
2018-09-15T13:03:26.127Z,14.86
2018-09-15T13:04:28.803Z,14.85
2018-09-15T13:05:31.631Z,14.87
2018-09-15T13:06:34.410Z,14.81
2018-09-15T13:07:37.058Z,14.97
2018-09-15T13:08:39.747Z,14.92
2018-09-15T13:09:42.441Z,14.95
2018-09-15T13:10:45.295Z,14.94
2018-09-15T13:11:47.958Z,14.97
2018-09-15T13:12:50.661Z,15.12
2018-09-15T13:13:53.318Z,15.16
2018-09-15T13:14:56.000Z,15.09
2018-09-15T13:15:58.773Z,15.15
2018-09-15T13:17:01.482Z,15.09
2018-09-15T13:18:04.213Z,15.00
2018-09-15T13:19:06.925Z,15.20
2018-09-15T13:20:09.649Z,15.25
2018-09-15T13:21:12.452Z,15.14
2018-09-15T13:22:15.132Z,15.13
2018-09-15T13:23:17.839Z,15.21
2018-09-15T13:24:20.520Z,15.15
2018-09-15T13:25:23.190Z,15.16
2018-09-15T13:26:25.984Z,15.22
2018-09-15T13:27:28.735Z,15.14
2018-09-15T13:28:31.399Z,15.12
2018-09-15T13:29:34.182Z,15.13
2018-09-15T13:30:36.855Z,15.10
2018-09-15T13:31:39.667Z,15.02
2018-09-15T13:32:42.379Z,15.02
2018-09-15T13:33:45.038Z,15.01